createdAt,value
2023-05-04T00:00:25.155Z,23.33
2023-05-04T00:02:54.547Z,22.77
2023-05-04T00:05:26.447Z,27.17
2023-05-04T00:07:57.527Z,25.43
2023-05-04T00:10:30.367Z,25.70
2023-05-04T00:13:00.698Z,21.97
2023-05-04T00:15:32.563Z,21.63
2023-05-04T00:18:01.526Z,23.77
2023-05-04T00:20:31.120Z,24.73
2023-05-04T00:23:01.872Z,24.60
2023-05-04T00:25:31.685Z,26.70
2023-05-04T00:28:01.039Z,24.67
2023-05-04T00:30:30.085Z,28.03
2023-05-04T00:32:59.777Z,23.70
2023-05-04T00:35:30.226Z,34.13
2023-05-04T00:38:00.721Z,23.13
2023-05-04T00:40:30.145Z,23.13
2023-05-04T00:42:59.841Z,27.03
2023-05-04T00:45:29.670Z,26.30
2023-05-04T00:47:59.508Z,27.23
2023-05-04T00:50:29.213Z,27.47
2023-05-04T00:53:05.539Z,24.83
2023-05-04T00:55:35.120Z,33.00
2023-05-04T00:58:06.362Z,30.87
2023-05-04T01:00:35.740Z,33.10
2023-05-04T01:03:05.805Z,23.80
2023-05-04T01:05:45.189Z,25.10
2023-05-04T01:08:20.216Z,30.60
2023-05-04T01:10:56.102Z,28.40
2023-05-04T01:13:26.454Z,25.30
2023-05-04T01:15:58.647Z,28.23
2023-05-04T01:18:27.872Z,25.50
2023-05-04T01:20:56.457Z,25.73
2023-05-04T01:23:27.777Z,26.77
2023-05-04T01:26:04.550Z,28.00
2023-05-04T01:28:41.448Z,22.30
2023-05-04T01:31:14.439Z,24.73
2023-05-04T01:33:46.307Z,24.13
2023-05-04T01:36:15.718Z,23.87
2023-05-04T01:38:45.655Z,22.73
2023-05-04T01:41:14.255Z,27.40
2023-05-04T01:43:45.794Z,23.67
2023-05-04T01:46:15.137Z,23.93
2023-05-04T01:48:44.128Z,22.77
2023-05-04T01:51:13.137Z,25.13
2023-05-04T01:53:42.515Z,24.80
2023-05-04T01:56:13.713Z,26.10
2023-05-04T01:58:42.962Z,23.67
2023-05-04T02:01:11.996Z,27.60
2023-05-04T02:03:43.673Z,24.57
2023-05-04T02:06:13.337Z,25.63
2023-05-04T02:08:43.593Z,23.10
2023-05-04T02:11:14.973Z,26.20
2023-05-04T02:13:46.330Z,26.37
2023-05-04T02:16:15.923Z,23.03
2023-05-04T02:18:47.118Z,24.77
2023-05-04T02:21:17.784Z,28.40
2023-05-04T02:23:46.937Z,24.70
2023-05-04T02:26:17.912Z,28.37
2023-05-04T02:28:47.828Z,29.40
2023-05-04T02:31:17.084Z,25.40
2023-05-04T02:33:46.093Z,24.10
2023-05-04T02:36:32.028Z,31.20
2023-05-04T02:39:01.606Z,24.03
2023-05-04T02:41:32.095Z,30.53
2023-05-04T02:44:01.355Z,33.43
2023-05-04T02:46:31.811Z,34.13
2023-05-04T02:49:05.499Z,27.67
2023-05-04T02:51:34.624Z,27.00
2023-05-04T02:54:03.805Z,30.53
2023-05-04T02:56:34.496Z,26.97
2023-05-04T02:59:03.655Z,31.50
2023-05-04T03:01:34.821Z,26.70
2023-05-04T03:04:04.266Z,31.07
2023-05-04T03:06:33.214Z,35.83
2023-05-04T03:09:02.720Z,34.37
2023-05-04T03:11:32.063Z,33.63
2023-05-04T03:14:02.760Z,40.50
2023-05-04T03:16:31.942Z,41.00
2023-05-04T03:19:01.538Z,35.67
2023-05-04T03:21:34.415Z,30.80
2023-05-04T03:24:03.909Z,33.23
2023-05-04T03:26:33.675Z,33.83
2023-05-04T03:29:03.831Z,36.03
2023-05-04T03:31:33.152Z,33.50
2023-05-04T03:34:02.793Z,32.30
2023-05-04T03:36:31.922Z,31.20
2023-05-04T03:39:01.152Z,35.70
2023-05-04T03:41:30.028Z,36.90
2023-05-04T03:43:59.712Z,31.43
2023-05-04T03:46:30.508Z,34.80
2023-05-04T03:48:59.968Z,29.97
2023-05-04T03:51:29.766Z,36.20
2023-05-04T03:53:58.521Z,34.60
2023-05-04T03:56:27.921Z,36.77
2023-05-04T03:58:57.618Z,41.47
2023-05-04T04:01:33.465Z,39.90
2023-05-04T04:04:03.054Z,32.50
2023-05-04T04:06:34.493Z,36.50
2023-05-04T04:09:03.775Z,38.07
2023-05-04T04:11:33.945Z,36.77
2023-05-04T04:14:02.794Z,35.27
2023-05-04T04:16:33.482Z,38.87
2023-05-04T04:19:02.894Z,43.20
2023-05-04T04:21:33.960Z,41.77
2023-05-04T04:24:03.543Z,42.10
2023-05-04T04:26:32.724Z,47.83
2023-05-04T04:29:08.009Z,43.37
2023-05-04T04:31:40.748Z,43.00
2023-05-04T04:34:09.920Z,39.80
2023-05-04T04:36:39.920Z,39.80
2023-05-04T04:39:09.750Z,48.50
2023-05-04T04:41:38.665Z,54.30
2023-05-04T04:44:08.488Z,43.03
2023-05-04T04:46:39.512Z,44.23
2023-05-04T04:49:08.856Z,42.40
2023-05-04T04:51:38.289Z,50.13
2023-05-04T04:54:07.660Z,45.67
2023-05-04T04:56:36.398Z,50.40
2023-05-04T04:59:05.367Z,41.67
2023-05-04T05:01:34.583Z,40.73
2023-05-04T05:04:05.510Z,43.20
2023-05-04T05:06:35.002Z,40.27
2023-05-04T05:09:04.120Z,39.50
2023-05-04T05:11:34.145Z,40.40
2023-05-04T05:14:05.545Z,38.07
2023-05-04T05:16:34.956Z,38.83
2023-05-04T05:19:05.980Z,40.63
2023-05-04T05:21:34.802Z,39.00
2023-05-04T05:24:06.020Z,40.67
2023-05-04T05:26:35.536Z,37.97
2023-05-04T05:29:06.289Z,38.03
2023-05-04T05:31:35.498Z,43.67
2023-05-04T05:34:06.015Z,36.77
2023-05-04T05:36:35.438Z,32.27
2023-05-04T05:39:06.180Z,38.87
2023-05-04T05:41:37.582Z,25.90
2023-05-04T05:44:06.944Z,27.07
2023-05-04T05:46:36.232Z,27.60
2023-05-04T05:49:08.093Z,28.40
2023-05-04T05:51:39.972Z,22.00
2023-05-04T05:54:09.139Z,28.03
2023-05-04T05:56:38.312Z,26.00
2023-05-04T05:59:07.584Z,21.67
2023-05-04T06:01:36.503Z,22.80
2023-05-04T06:04:07.738Z,25.30
2023-05-04T06:06:38.798Z,21.17
2023-05-04T06:09:08.108Z,27.93
2023-05-04T06:11:37.091Z,25.90
2023-05-04T06:14:06.418Z,19.90
2023-05-04T06:16:35.921Z,23.83
2023-05-04T06:19:07.055Z,23.03
2023-05-04T06:21:36.310Z,20.80
2023-05-04T06:24:05.887Z,19.87
2023-05-04T06:26:34.930Z,23.53
2023-05-04T06:29:04.836Z,21.47
2023-05-04T06:31:34.282Z,26.17
2023-05-04T06:34:04.583Z,16.60
2023-05-04T06:36:42.059Z,25.40
2023-05-04T06:39:11.202Z,19.77
2023-05-04T06:41:41.309Z,18.07
2023-05-04T06:44:10.673Z,15.87
2023-05-04T06:46:40.179Z,16.87
2023-05-04T06:49:09.545Z,18.13
2023-05-04T06:51:41.502Z,17.07
2023-05-04T06:54:10.749Z,16.33
2023-05-04T06:56:41.798Z,15.50
2023-05-04T06:59:11.422Z,16.27
2023-05-04T07:01:41.297Z,15.33
2023-05-04T07:04:12.028Z,16.53
2023-05-04T07:06:45.572Z,11.90
2023-05-04T07:09:15.544Z,13.83
2023-05-04T07:11:45.922Z,21.87
2023-05-04T07:14:19.902Z,12.07
2023-05-04T07:16:49.498Z,13.43
2023-05-04T07:19:18.403Z,14.13
2023-05-04T07:21:53.228Z,14.53
2023-05-04T07:24:22.536Z,14.47
2023-05-04T07:26:53.537Z,16.90
2023-05-04T07:29:23.336Z,10.30
2023-05-04T07:31:52.571Z,12.20
2023-05-04T07:34:30.191Z,12.03
2023-05-04T07:37:11.700Z,17.10
2023-05-04T07:39:40.984Z,13.73
2023-05-04T07:42:12.163Z,11.40
2023-05-04T07:44:42.093Z,11.93
2023-05-04T07:47:11.208Z,10.30
2023-05-04T07:49:40.619Z,8.43
2023-05-04T07:52:16.353Z,8.60
2023-05-04T07:54:46.262Z,8.17
2023-05-04T07:57:18.011Z,10.97
2023-05-04T07:59:47.288Z,8.17
2023-05-04T08:02:16.332Z,5.70
2023-05-04T08:04:45.706Z,9.83
2023-05-04T08:07:17.743Z,8.77
2023-05-04T08:09:47.091Z,6.20
2023-05-04T08:12:16.355Z,7.77
2023-05-04T08:14:49.570Z,5.60
2023-05-04T08:17:19.172Z,8.80
2023-05-04T08:19:51.997Z,5.23
2023-05-04T08:22:24.903Z,7.03
2023-05-04T08:24:54.441Z,12.77
2023-05-04T08:27:24.070Z,9.53
2023-05-04T08:29:53.646Z,5.30
2023-05-04T08:32:22.865Z,7.00
2023-05-04T08:34:53.024Z,4.10
2023-05-04T08:37:24.515Z,4.73
2023-05-04T08:39:53.976Z,5.60
2023-05-04T08:42:33.823Z,4.23
2023-05-04T08:45:03.966Z,4.30
2023-05-04T08:47:34.194Z,5.33
2023-05-04T08:50:05.238Z,8.07
2023-05-04T08:52:39.379Z,5.28
2023-05-04T08:55:13.249Z,9.32
2023-05-04T08:57:45.760Z,6.00
2023-05-04T09:00:19.462Z,4.80
2023-05-04T09:02:54.923Z,5.00
2023-05-04T09:05:36.651Z,6.30
2023-05-04T09:08:09.299Z,3.95
2023-05-04T09:10:38.441Z,4.00
2023-05-04T09:13:07.690Z,4.68
2023-05-04T09:15:36.854Z,6.15
2023-05-04T09:18:07.268Z,2.58
2023-05-04T09:20:47.063Z,5.03
2023-05-04T09:23:18.498Z,5.28
2023-05-04T09:25:52.853Z,6.97
2023-05-04T09:31:02.151Z,5.28
2023-05-04T09:33:32.382Z,5.28
2023-05-04T09:36:13.822Z,7.10
2023-05-04T09:38:45.029Z,5.32
2023-05-04T09:41:17.323Z,4.88
2023-05-04T09:43:46.659Z,6.43
2023-05-04T09:46:19.817Z,4.05
2023-05-04T09:48:54.314Z,5.85
2023-05-04T09:51:25.697Z,6.05
2023-05-04T09:53:56.302Z,6.63
2023-05-04T09:56:39.104Z,4.07
2023-05-04T09:59:12.085Z,3.45
2023-05-04T10:01:44.696Z,4.50
2023-05-04T10:04:14.732Z,4.07
2023-05-04T10:06:45.362Z,3.63
2023-05-04T10:09:16.103Z,7.80
2023-05-04T10:11:45.957Z,4.20
2023-05-04T10:14:15.459Z,5.15
2023-05-04T10:16:53.811Z,3.45
2023-05-04T10:19:47.375Z,5.43
2023-05-04T10:22:29.308Z,8.15
2023-05-04T10:25:31.417Z,10.10
2023-05-04T10:28:08.782Z,5.22
2023-05-04T10:30:42.568Z,4.60
2023-05-04T10:33:12.422Z,7.47
2023-05-04T10:35:53.777Z,6.18
2023-05-04T10:38:33.909Z,4.82
2023-05-04T10:41:16.133Z,6.30
2023-05-04T10:43:49.283Z,6.47
2023-05-04T10:46:19.263Z,5.80
2023-05-04T10:48:48.517Z,6.28
2023-05-04T10:51:21.118Z,7.50
2023-05-04T10:53:50.361Z,5.43
2023-05-04T10:56:25.505Z,2.63
2023-05-04T10:58:55.061Z,8.02
2023-05-04T11:01:24.616Z,5.22
2023-05-04T11:03:55.142Z,3.30
2023-05-04T11:06:26.718Z,10.00
2023-05-04T11:09:03.603Z,5.15
2023-05-04T11:11:38.238Z,2.83
2023-05-04T11:14:06.857Z,3.25
2023-05-04T11:16:35.705Z,4.18
2023-05-04T11:19:12.968Z,3.05
2023-05-04T11:21:42.396Z,3.72
2023-05-04T11:24:11.485Z,7.00
2023-05-04T11:26:49.444Z,7.57
2023-05-04T11:29:18.912Z,3.67
2023-05-04T11:31:56.196Z,5.15
2023-05-04T11:34:25.125Z,4.50
2023-05-04T11:36:54.895Z,8.57
2023-05-04T11:39:24.036Z,3.25
2023-05-04T11:41:55.878Z,3.25
2023-05-04T11:44:24.940Z,2.88
2023-05-04T11:46:55.240Z,2.85
2023-05-04T11:49:26.334Z,4.22
2023-05-04T11:52:07.435Z,8.15
2023-05-04T11:54:37.706Z,5.28
2023-05-04T11:57:08.207Z,6.55
2023-05-04T11:59:37.117Z,4.70
2023-05-04T12:02:06.268Z,4.93
2023-05-04T12:04:34.948Z,4.07
2023-05-04T12:07:09.733Z,3.50
2023-05-04T12:09:46.508Z,4.25
2023-05-04T12:12:19.635Z,3.00
2023-05-04T12:14:49.717Z,3.13
2023-05-04T12:17:20.623Z,5.93
2023-05-04T12:19:54.319Z,4.22
2023-05-04T12:22:30.511Z,3.67
2023-05-04T12:25:00.605Z,3.30
2023-05-04T12:27:31.719Z,3.63
2023-05-04T12:30:01.579Z,4.28
2023-05-04T12:32:30.736Z,4.22
2023-05-04T12:35:00.041Z,3.53
2023-05-04T12:37:29.122Z,2.92
2023-05-04T12:39:57.749Z,7.95
2023-05-04T12:42:26.859Z,6.90
2023-05-04T12:44:57.221Z,2.35
2023-05-04T12:47:26.710Z,3.28
2023-05-04T12:49:56.373Z,1.83
2023-05-04T12:52:25.373Z,7.03
2023-05-04T12:54:54.909Z,3.65
2023-05-04T12:57:23.623Z,5.10
2023-05-04T12:59:53.224Z,2.30
2023-05-04T13:02:23.903Z,6.03
2023-05-04T13:04:54.303Z,4.25
2023-05-04T13:07:23.329Z,5.63
2023-05-04T13:09:51.943Z,4.80
2023-05-04T13:12:21.125Z,2.08
2023-05-04T13:14:49.921Z,2.75
2023-05-04T13:17:19.470Z,5.00
2023-05-04T13:19:50.400Z,7.18
2023-05-04T13:22:20.004Z,6.60
2023-05-04T13:24:48.890Z,2.13
2023-05-04T13:27:17.985Z,4.70
2023-05-04T13:29:46.981Z,5.60
2023-05-04T13:32:16.239Z,6.93
2023-05-04T13:34:46.112Z,2.13
2023-05-04T13:37:18.700Z,2.67
2023-05-04T13:39:48.799Z,5.25
2023-05-04T13:42:18.566Z,4.00
2023-05-04T13:44:47.873Z,5.47
2023-05-04T13:47:17.967Z,5.07
2023-05-04T13:49:46.778Z,3.08
2023-05-04T13:52:17.263Z,2.72
2023-05-04T13:54:48.461Z,4.32
2023-05-04T13:57:19.078Z,4.68
2023-05-04T13:59:58.627Z,4.05
2023-05-04T14:02:39.484Z,5.63
2023-05-04T14:05:08.968Z,4.28
2023-05-04T14:07:39.620Z,3.25
2023-05-04T14:10:09.720Z,5.35
2023-05-04T14:12:38.593Z,3.90
2023-05-04T14:15:09.155Z,6.03
2023-05-04T14:17:39.798Z,4.38
2023-05-04T14:20:10.336Z,8.10
2023-05-04T14:22:41.894Z,7.78
2023-05-04T14:25:11.451Z,4.68
2023-05-04T14:27:42.030Z,3.90
2023-05-04T14:30:12.925Z,6.47
2023-05-04T14:32:42.418Z,2.25
2023-05-04T14:35:13.091Z,7.55
2023-05-04T14:37:44.766Z,3.40
2023-05-04T14:40:14.745Z,4.45
2023-05-04T14:42:46.267Z,4.80
2023-05-04T14:45:16.467Z,8.25
2023-05-04T14:47:45.714Z,3.42
2023-05-04T14:50:15.005Z,3.95
2023-05-04T14:52:45.800Z,3.97
2023-05-04T14:55:15.108Z,2.10
2023-05-04T14:57:44.440Z,2.90
2023-05-04T15:00:15.147Z,3.10
2023-05-04T15:02:44.393Z,4.63
2023-05-04T15:05:13.170Z,5.03
2023-05-04T15:07:44.353Z,3.70
2023-05-04T15:10:16.055Z,3.72
2023-05-04T15:12:45.253Z,3.17
2023-05-04T15:15:14.623Z,3.90
2023-05-04T15:17:44.226Z,5.10
2023-05-04T15:20:15.815Z,7.70
2023-05-04T15:22:47.851Z,3.50
2023-05-04T15:25:19.505Z,4.05
2023-05-04T15:27:49.034Z,3.55
2023-05-04T15:30:18.535Z,3.50
2023-05-04T15:32:50.315Z,7.43
2023-05-04T15:35:22.674Z,3.70
2023-05-04T15:37:51.984Z,5.50
2023-05-04T15:40:22.836Z,3.58
2023-05-04T15:42:51.968Z,4.13
2023-05-04T15:45:22.513Z,4.20
2023-05-04T15:47:53.191Z,3.88
2023-05-04T15:50:24.694Z,8.88
2023-05-04T15:52:56.567Z,3.05
2023-05-04T15:55:28.334Z,5.13
2023-05-04T15:57:57.702Z,6.70
2023-05-04T16:00:28.152Z,6.07
2023-05-04T16:02:58.186Z,10.10
2023-05-04T16:05:28.022Z,3.10
2023-05-04T16:07:57.356Z,4.50
2023-05-04T16:10:28.670Z,5.57
2023-05-04T16:13:00.463Z,3.40
2023-05-04T16:15:30.906Z,3.78
2023-05-04T16:18:00.234Z,7.72
2023-05-04T16:20:30.768Z,4.07
2023-05-04T16:23:00.452Z,2.28
2023-05-04T16:25:31.352Z,3.53
2023-05-04T16:28:00.823Z,3.65
2023-05-04T16:30:33.299Z,3.85
2023-05-04T16:33:03.246Z,5.10
2023-05-04T16:35:34.239Z,5.07
2023-05-04T16:38:04.405Z,6.25
2023-05-04T16:40:36.367Z,2.38
2023-05-04T16:43:07.962Z,3.20
2023-05-04T16:45:38.700Z,6.50
2023-05-04T16:48:08.420Z,4.18
2023-05-04T16:50:37.908Z,4.43
2023-05-04T16:53:07.628Z,5.35
2023-05-04T16:55:41.126Z,4.10
2023-05-04T16:58:10.830Z,17.35
2023-05-04T17:00:43.733Z,3.05
2023-05-04T17:03:13.167Z,5.00
2023-05-04T17:05:42.742Z,6.82
2023-05-04T17:08:13.210Z,6.20
2023-05-04T17:10:44.630Z,5.47
2023-05-04T17:13:14.165Z,12.40
2023-05-04T17:15:43.935Z,6.07
2023-05-04T17:18:15.733Z,5.80
2023-05-04T17:20:45.038Z,7.22
2023-05-04T17:23:15.905Z,5.53
2023-05-04T17:25:47.107Z,7.05
2023-05-04T17:28:16.887Z,8.73
2023-05-04T17:30:46.168Z,3.38
2023-05-04T17:33:15.085Z,3.35
2023-05-04T17:35:45.139Z,3.78
2023-05-04T17:38:14.524Z,2.97
2023-05-04T17:40:44.791Z,4.13
2023-05-04T17:43:15.605Z,7.32
2023-05-04T17:45:56.151Z,5.82
2023-05-04T17:48:25.879Z,5.47
2023-05-04T17:50:55.606Z,10.75
2023-05-04T17:53:24.820Z,6.82
2023-05-04T17:55:54.525Z,9.18
2023-05-04T17:58:26.451Z,4.53
2023-05-04T18:00:55.460Z,10.43
2023-05-04T18:03:25.641Z,11.05
2023-05-04T18:05:55.051Z,6.25
2023-05-04T18:08:24.613Z,10.35
2023-05-04T18:10:53.531Z,11.10
2023-05-04T18:13:24.577Z,7.40
2023-05-04T18:15:54.639Z,10.48
2023-05-04T18:18:24.958Z,16.80
2023-05-04T18:20:54.148Z,7.97
2023-05-04T18:23:24.771Z,8.03
2023-05-04T18:25:56.761Z,9.55
2023-05-04T18:28:27.884Z,12.23
2023-05-04T18:30:57.694Z,15.65
2023-05-04T18:33:29.786Z,15.48
2023-05-04T18:35:58.602Z,13.82
2023-05-04T18:38:27.808Z,27.30
2023-05-04T18:40:57.434Z,27.75
2023-05-04T18:43:27.838Z,18.63
2023-05-04T18:45:57.046Z,25.55
2023-05-04T18:48:26.135Z,24.63
2023-05-04T18:50:57.542Z,13.30
2023-05-04T18:53:26.820Z,16.40
2023-05-04T18:56:03.323Z,17.90
2023-05-04T18:58:34.556Z,14.73
2023-05-04T19:01:03.936Z,20.67
2023-05-04T19:03:33.409Z,19.90
2023-05-04T19:06:02.546Z,12.33
2023-05-04T19:08:31.560Z,17.13
2023-05-04T19:11:00.794Z,11.43
2023-05-04T19:13:30.021Z,14.17
2023-05-04T19:16:00.640Z,10.97
2023-05-04T19:18:30.067Z,15.77
2023-05-04T19:21:06.842Z,17.23
2023-05-04T19:23:36.289Z,20.57
2023-05-04T19:26:06.302Z,15.83
2023-05-04T19:28:35.635Z,19.00
2023-05-04T19:31:06.565Z,10.90
2023-05-04T19:33:47.206Z,11.33
2023-05-04T19:36:18.798Z,7.63
2023-05-04T19:38:48.260Z,12.40
2023-05-04T19:41:17.647Z,14.70
2023-05-04T19:43:49.692Z,16.33
2023-05-04T19:46:24.677Z,24.47
2023-05-04T19:48:55.913Z,18.53
2023-05-04T19:51:25.150Z,21.23
2023-05-04T19:53:54.768Z,10.90
2023-05-04T19:56:25.235Z,11.03
2023-05-04T19:58:55.008Z,11.07
2023-05-04T20:01:26.126Z,6.47
2023-05-04T20:03:56.086Z,9.27
2023-05-04T20:06:27.086Z,10.57
2023-05-04T20:08:56.371Z,10.07
2023-05-04T20:11:29.598Z,9.60
2023-05-04T20:13:59.054Z,14.50
2023-05-04T20:16:29.568Z,9.87
2023-05-04T20:19:03.670Z,15.47
2023-05-04T20:21:34.574Z,11.60
2023-05-04T20:24:04.386Z,10.60
2023-05-04T20:26:34.194Z,12.40
2023-05-04T20:29:03.771Z,14.33
2023-05-04T20:31:35.958Z,11.13
2023-05-04T20:34:05.862Z,14.73
2023-05-04T20:36:35.321Z,15.37
2023-05-04T20:39:07.203Z,15.73
2023-05-04T20:41:38.663Z,11.70
2023-05-04T20:44:07.617Z,14.00
2023-05-04T20:46:40.864Z,13.33
2023-05-04T20:49:10.446Z,10.97
2023-05-04T20:51:40.655Z,13.67
2023-05-04T20:54:09.540Z,7.97
2023-05-04T20:56:39.333Z,14.73
2023-05-04T20:59:08.488Z,11.50
2023-05-04T21:01:37.454Z,11.60
2023-05-04T21:04:10.869Z,18.20
2023-05-04T21:06:40.021Z,11.87
2023-05-04T21:09:10.299Z,8.60
2023-05-04T21:11:39.760Z,11.57
2023-05-04T21:14:08.656Z,10.57
2023-05-04T21:16:38.191Z,7.77
2023-05-04T21:19:08.726Z,8.40
2023-05-04T21:21:41.326Z,14.93
2023-05-04T21:24:14.354Z,13.80
2023-05-04T21:26:43.929Z,13.80
2023-05-04T21:29:15.133Z,18.80
2023-05-04T21:31:44.038Z,22.00
2023-05-04T21:34:15.142Z,23.53
2023-05-04T21:36:45.487Z,23.87
2023-05-04T21:39:14.112Z,21.43
2023-05-04T21:41:45.787Z,30.37
2023-05-04T21:44:15.271Z,25.97
2023-05-04T21:46:44.060Z,23.37
2023-05-04T21:49:14.426Z,21.67
2023-05-04T21:51:43.672Z,17.90
2023-05-04T21:54:13.021Z,23.87
2023-05-04T21:56:43.335Z,18.70
2023-05-04T21:59:12.862Z,16.23
2023-05-04T22:01:49.940Z,19.07
2023-05-04T22:04:21.189Z,14.00
2023-05-04T22:06:49.977Z,17.57
2023-05-04T22:09:19.329Z,20.83
2023-05-04T22:11:52.395Z,18.53
2023-05-04T22:14:21.513Z,30.33
2023-05-04T22:16:50.757Z,25.07
2023-05-04T22:19:21.316Z,15.77
2023-05-04T22:21:50.468Z,25.10
2023-05-04T22:24:19.002Z,21.50
2023-05-04T22:26:49.599Z,23.70
2023-05-04T22:29:18.641Z,20.33
2023-05-04T22:31:47.348Z,19.00
2023-05-04T22:34:16.832Z,21.13
2023-05-04T22:36:50.107Z,19.90
2023-05-04T22:39:19.192Z,17.87
2023-05-04T22:41:48.161Z,19.83
2023-05-04T22:44:17.691Z,17.57
2023-05-04T22:46:46.756Z,17.87
2023-05-04T22:49:15.933Z,16.97
2023-05-04T22:51:50.311Z,21.13
2023-05-04T22:54:18.902Z,17.43
2023-05-04T22:56:47.607Z,21.67
2023-05-04T22:59:16.986Z,19.07
2023-05-04T23:01:48.040Z,22.73
2023-05-04T23:04:17.842Z,20.23
2023-05-04T23:06:47.695Z,57.57
2023-05-04T23:09:17.838Z,32.53
2023-05-04T23:11:47.143Z,20.50
2023-05-04T23:14:16.297Z,17.83
2023-05-04T23:16:47.055Z,22.43
2023-05-04T23:19:16.145Z,21.93
2023-05-04T23:21:45.058Z,72.50
2023-05-04T23:24:15.791Z,31.30
2023-05-04T23:26:45.720Z,30.73
2023-05-04T23:29:16.392Z,20.47
2023-05-04T23:31:45.181Z,24.27
2023-05-04T23:34:14.206Z,21.70
2023-05-04T23:36:43.201Z,25.13
2023-05-04T23:39:12.430Z,22.47
2023-05-04T23:41:41.319Z,22.27
2023-05-04T23:44:11.296Z,21.10
2023-05-04T23:46:40.806Z,23.37
2023-05-04T23:49:09.446Z,21.00
2023-05-04T23:51:39.776Z,19.43
2023-05-04T23:54:09.486Z,17.13
2023-05-04T23:56:38.226Z,27.43
2023-05-04T23:59:07.236Z,25.70
